sensor_id;sensor_type;location;lat;lon;timestamp;P1;durP1;ratioP1;P2;durP2;ratioP2
908;SDS011;441;51.192;6.788;2023-03-01T00:00:01;11.70;;;11.40;;
908;SDS011;441;51.192;6.788;2023-03-01T00:02:29;11.80;;;11.40;;
908;SDS011;441;51.192;6.788;2023-03-01T00:04:56;12.73;;;12.33;;
908;SDS011;441;51.192;6.788;2023-03-01T00:07:23;12.53;;;12.13;;
908;SDS011;441;51.192;6.788;2023-03-01T00:09:50;12.00;;;11.60;;
908;SDS011;441;51.192;6.788;2023-03-01T00:12:18;13.10;;;12.70;;
908;SDS011;441;51.192;6.788;2023-03-01T00:14:45;13.93;;;13.53;;
908;SDS011;441;51.192;6.788;2023-03-01T00:17:11;12.60;;;12.10;;
908;SDS011;441;51.192;6.788;2023-03-01T00:19:38;12.93;;;12.50;;
908;SDS011;441;51.192;6.788;2023-03-01T00:22:05;14.10;;;13.40;;
908;SDS011;441;51.192;6.788;2023-03-01T00:24:32;12.30;;;11.90;;
908;SDS011;441;51.192;6.788;2023-03-01T00:26:59;12.60;;;12.20;;
908;SDS011;441;51.192;6.788;2023-03-01T00:29:27;12.30;;;11.90;;
908;SDS011;441;51.192;6.788;2023-03-01T00:31:54;12.20;;;11.80;;
908;SDS011;441;51.192;6.788;2023-03-01T00:34:21;13.77;;;13.20;;
908;SDS011;441;51.192;6.788;2023-03-01T00:36:48;12.70;;;12.30;;
908;SDS011;441;51.192;6.788;2023-03-01T00:39:14;12.53;;;12.13;;
908;SDS011;441;51.192;6.788;2023-03-01T00:41:42;12.63;;;12.23;;
908;SDS011;441;51.192;6.788;2023-03-01T00:44:09;12.40;;;12.10;;
908;SDS011;441;51.192;6.788;2023-03-01T00:46:38;11.70;;;11.40;;
908;SDS011;441;51.192;6.788;2023-03-01T00:49:05;13.07;;;12.60;;
908;SDS011;441;51.192;6.788;2023-03-01T00:51:32;12.70;;;12.20;;
908;SDS011;441;51.192;6.788;2023-03-01T00:54:00;11.67;;;11.27;;
908;SDS011;441;51.192;6.788;2023-03-01T00:56:28;12.40;;;12.00;;
908;SDS011;441;51.192;6.788;2023-03-01T00:58:55;12.30;;;11.90;;
908;SDS011;441;51.192;6.788;2023-03-01T01:01:23;11.70;;;11.37;;
908;SDS011;441;51.192;6.788;2023-03-01T01:03:54;12.20;;;11.90;;
908;SDS011;441;51.192;6.788;2023-03-01T01:06:23;12.37;;;12.07;;
908;SDS011;441;51.192;6.788;2023-03-01T01:08:52;12.33;;;11.90;;
908;SDS011;441;51.192;6.788;2023-03-01T01:11:20;12.30;;;11.90;;
908;SDS011;441;51.192;6.788;2023-03-01T01:13:48;14.03;;;13.53;;
908;SDS011;441;51.192;6.788;2023-03-01T01:16:16;13.27;;;12.87;;
908;SDS011;441;51.192;6.788;2023-03-01T01:18:44;12.33;;;11.93;;
908;SDS011;441;51.192;6.788;2023-03-01T01:21:14;13.23;;;12.73;;
908;SDS011;441;51.192;6.788;2023-03-01T01:23:42;13.40;;;12.70;;
908;SDS011;441;51.192;6.788;2023-03-01T01:26:12;12.13;;;11.83;;
908;SDS011;441;51.192;6.788;2023-03-01T01:28:44;12.37;;;12.00;;
908;SDS011;441;51.192;6.788;2023-03-01T01:31:11;12.37;;;11.90;;
908;SDS011;441;51.192;6.788;2023-03-01T01:33:38;12.60;;;12.20;;
908;SDS011;441;51.192;6.788;2023-03-01T01:36:05;13.50;;;13.10;;
908;SDS011;441;51.192;6.788;2023-03-01T01:38:35;11.87;;;11.53;;
908;SDS011;441;51.192;6.788;2023-03-01T01:41:03;13.07;;;12.57;;
908;SDS011;441;51.192;6.788;2023-03-01T01:43:32;12.33;;;11.93;;
908;SDS011;441;51.192;6.788;2023-03-01T01:46:00;13.30;;;12.80;;
908;SDS011;441;51.192;6.788;2023-03-01T01:48:32;13.63;;;13.13;;
908;SDS011;441;51.192;6.788;2023-03-01T01:51:06;13.37;;;12.97;;
908;SDS011;441;51.192;6.788;2023-03-01T01:53:38;12.63;;;12.13;;
908;SDS011;441;51.192;6.788;2023-03-01T01:56:06;12.80;;;12.40;;
908;SDS011;441;51.192;6.788;2023-03-01T01:58:35;12.70;;;12.40;;
908;SDS011;441;51.192;6.788;2023-03-01T02:01:03;13.10;;;12.70;;
908;SDS011;441;51.192;6.788;2023-03-01T02:03:31;13.10;;;12.60;;
908;SDS011;441;51.192;6.788;2023-03-01T02:06:03;12.13;;;11.73;;
908;SDS011;441;51.192;6.788;2023-03-01T02:08:34;13.00;;;12.60;;
908;SDS011;441;51.192;6.788;2023-03-01T02:11:05;12.43;;;12.03;;
908;SDS011;441;51.192;6.788;2023-03-01T02:13:33;12.40;;;12.00;;
908;SDS011;441;51.192;6.788;2023-03-01T02:16:02;12.50;;;11.83;;
908;SDS011;441;51.192;6.788;2023-03-01T02:18:30;13.40;;;12.90;;
908;SDS011;441;51.192;6.788;2023-03-01T02:21:03;12.60;;;12.20;;
908;SDS011;441;51.192;6.788;2023-03-01T02:23:37;12.37;;;11.90;;
908;SDS011;441;51.192;6.788;2023-03-01T02:26:07;12.87;;;12.47;;
908;SDS011;441;51.192;6.788;2023-03-01T02:28:40;12.87;;;12.37;;
908;SDS011;441;51.192;6.788;2023-03-01T02:31:10;12.77;;;12.17;;
908;SDS011;441;51.192;6.788;2023-03-01T02:33:58;13.97;;;13.37;;
908;SDS011;441;51.192;6.788;2023-03-01T02:36:30;12.67;;;12.17;;
908;SDS011;441;51.192;6.788;2023-03-01T02:39:01;12.20;;;11.90;;
908;SDS011;441;51.192;6.788;2023-03-01T02:41:31;13.13;;;12.73;;
908;SDS011;441;51.192;6.788;2023-03-01T02:44:03;12.73;;;12.33;;
908;SDS011;441;51.192;6.788;2023-03-01T02:46:30;11.87;;;11.57;;
908;SDS011;441;51.192;6.788;2023-03-01T02:48:57;12.50;;;12.10;;
908;SDS011;441;51.192;6.788;2023-03-01T02:51:27;14.30;;;13.77;;
908;SDS011;441;51.192;6.788;2023-03-01T02:54:13;12.60;;;12.10;;
908;SDS011;441;51.192;6.788;2023-03-01T02:56:46;12.40;;;11.90;;
908;SDS011;441;51.192;6.788;2023-03-01T02:59:15;12.00;;;11.70;;
908;SDS011;441;51.192;6.788;2023-03-01T03:01:43;12.33;;;11.93;;
908;SDS011;441;51.192;6.788;2023-03-01T03:04:13;12.87;;;12.50;;
908;SDS011;441;51.192;6.788;2023-03-01T03:06:42;12.70;;;12.40;;
908;SDS011;441;51.192;6.788;2023-03-01T03:09:09;11.83;;;11.43;;
908;SDS011;441;51.192;6.788;2023-03-01T03:11:36;12.70;;;12.23;;
908;SDS011;441;51.192;6.788;2023-03-01T03:14:04;13.20;;;12.70;;
908;SDS011;441;51.192;6.788;2023-03-01T03:16:39;13.70;;;13.30;;
908;SDS011;441;51.192;6.788;2023-03-01T03:19:06;12.23;;;11.83;;
908;SDS011;441;51.192;6.788;2023-03-01T03:21:33;11.93;;;11.43;;
908;SDS011;441;51.192;6.788;2023-03-01T03:24:01;12.30;;;11.90;;
908;SDS011;441;51.192;6.788;2023-03-01T03:26:28;12.83;;;12.33;;
908;SDS011;441;51.192;6.788;2023-03-01T03:28:55;12.13;;;11.53;;
908;SDS011;441;51.192;6.788;2023-03-01T03:31:22;12.80;;;12.40;;
908;SDS011;441;51.192;6.788;2023-03-01T03:33:51;13.30;;;12.70;;
908;SDS011;441;51.192;6.788;2023-03-01T03:36:19;12.23;;;11.73;;
908;SDS011;441;51.192;6.788;2023-03-01T03:38:46;12.60;;;12.20;;
908;SDS011;441;51.192;6.788;2023-03-01T03:41:14;12.27;;;11.87;;
908;SDS011;441;51.192;6.788;2023-03-01T03:43:41;11.40;;;11.10;;
908;SDS011;441;51.192;6.788;2023-03-01T03:46:09;13.37;;;12.87;;
908;SDS011;441;51.192;6.788;2023-03-01T03:48:37;12.90;;;12.40;;
908;SDS011;441;51.192;6.788;2023-03-01T03:51:06;12.47;;;12.07;;
908;SDS011;441;51.192;6.788;2023-03-01T03:53:36;13.23;;;12.73;;
908;SDS011;441;51.192;6.788;2023-03-01T03:56:03;12.60;;;12.20;;
908;SDS011;441;51.192;6.788;2023-03-01T03:58:30;13.37;;;12.73;;
908;SDS011;441;51.192;6.788;2023-03-01T04:00:57;12.47;;;12.07;;
908;SDS011;441;51.192;6.788;2023-03-01T04:03:26;12.60;;;12.20;;
908;SDS011;441;51.192;6.788;2023-03-01T04:05:53;12.43;;;12.13;;
908;SDS011;441;51.192;6.788;2023-03-01T04:08:22;12.63;;;12.10;;
908;SDS011;441;51.192;6.788;2023-03-01T04:10:50;12.43;;;12.13;;
908;SDS011;441;51.192;6.788;2023-03-01T04:13:18;11.90;;;11.60;;
908;SDS011;441;51.192;6.788;2023-03-01T04:15:48;13.27;;;12.87;;
908;SDS011;441;51.192;6.788;2023-03-01T04:18:16;12.87;;;12.47;;
908;SDS011;441;51.192;6.788;2023-03-01T04:20:44;12.30;;;11.90;;
908;SDS011;441;51.192;6.788;2023-03-01T04:23:11;12.70;;;12.27;;
908;SDS011;441;51.192;6.788;2023-03-01T04:25:44;12.10;;;11.77;;
908;SDS011;441;51.192;6.788;2023-03-01T04:28:14;12.37;;;11.97;;
908;SDS011;441;51.192;6.788;2023-03-01T04:30:41;12.80;;;12.20;;
908;SDS011;441;51.192;6.788;2023-03-01T04:33:08;13.10;;;12.60;;
908;SDS011;441;51.192;6.788;2023-03-01T04:35:36;12.80;;;12.40;;
908;SDS011;441;51.192;6.788;2023-03-01T04:38:03;13.17;;;12.67;;
908;SDS011;441;51.192;6.788;2023-03-01T04:40:30;12.67;;;12.27;;
908;SDS011;441;51.192;6.788;2023-03-01T04:42:59;14.93;;;14.23;;
908;SDS011;441;51.192;6.788;2023-03-01T04:45:25;12.80;;;12.40;;
908;SDS011;441;51.192;6.788;2023-03-01T04:47:53;13.40;;;12.93;;
908;SDS011;441;51.192;6.788;2023-03-01T04:50:20;12.90;;;12.50;;
908;SDS011;441;51.192;6.788;2023-03-01T04:52:48;13.10;;;12.67;;
908;SDS011;441;51.192;6.788;2023-03-01T04:55:15;12.20;;;11.90;;
908;SDS011;441;51.192;6.788;2023-03-01T04:57:42;13.00;;;12.60;;
908;SDS011;441;51.192;6.788;2023-03-01T05:00:12;13.17;;;12.77;;
908;SDS011;441;51.192;6.788;2023-03-01T05:02:49;13.73;;;13.23;;
908;SDS011;441;51.192;6.788;2023-03-01T05:05:18;13.73;;;13.23;;
908;SDS011;441;51.192;6.788;2023-03-01T05:07:50;11.83;;;11.53;;
908;SDS011;441;51.192;6.788;2023-03-01T05:10:18;13.43;;;13.03;;
908;SDS011;441;51.192;6.788;2023-03-01T05:12:44;12.97;;;12.47;;
908;SDS011;441;51.192;6.788;2023-03-01T05:15:13;13.20;;;12.70;;
908;SDS011;441;51.192;6.788;2023-03-01T05:17:40;13.13;;;12.63;;
908;SDS011;441;51.192;6.788;2023-03-01T05:20:08;13.23;;;12.50;;
908;SDS011;441;51.192;6.788;2023-03-01T05:22:36;14.00;;;13.60;;
908;SDS011;441;51.192;6.788;2023-03-01T05:25:03;14.97;;;14.20;;
908;SDS011;441;51.192;6.788;2023-03-01T05:27:32;13.90;;;13.50;;
908;SDS011;441;51.192;6.788;2023-03-01T05:29:59;14.57;;;13.40;;
908;SDS011;441;51.192;6.788;2023-03-01T05:32:39;15.03;;;14.50;;
908;SDS011;441;51.192;6.788;2023-03-01T05:35:08;15.60;;;14.93;;
908;SDS011;441;51.192;6.788;2023-03-01T05:37:38;15.53;;;14.93;;
908;SDS011;441;51.192;6.788;2023-03-01T05:40:06;15.60;;;14.73;;
908;SDS011;441;51.192;6.788;2023-03-01T05:42:40;14.53;;;13.80;;
908;SDS011;441;51.192;6.788;2023-03-01T05:45:08;15.20;;;14.30;;
908;SDS011;441;51.192;6.788;2023-03-01T05:47:37;15.67;;;15.07;;
908;SDS011;441;51.192;6.788;2023-03-01T05:50:09;14.93;;;14.17;;
908;SDS011;441;51.192;6.788;2023-03-01T05:52:37;15.40;;;14.80;;
908;SDS011;441;51.192;6.788;2023-03-01T05:55:04;16.07;;;14.97;;
908;SDS011;441;51.192;6.788;2023-03-01T05:57:32;14.90;;;14.20;;
908;SDS011;441;51.192;6.788;2023-03-01T05:59:59;14.73;;;14.20;;
908;SDS011;441;51.192;6.788;2023-03-01T06:02:26;14.25;;;13.27;;
908;SDS011;441;51.192;6.788;2023-03-01T06:04:55;15.70;;;15.10;;
908;SDS011;441;51.192;6.788;2023-03-01T06:07:22;15.53;;;15.03;;
908;SDS011;441;51.192;6.788;2023-03-01T06:09:49;14.03;;;13.53;;
908;SDS011;441;51.192;6.788;2023-03-01T06:12:16;14.00;;;13.50;;
908;SDS011;441;51.192;6.788;2023-03-01T06:14:43;13.87;;;13.47;;
908;SDS011;441;51.192;6.788;2023-03-01T06:17:12;14.90;;;14.30;;
908;SDS011;441;51.192;6.788;2023-03-01T06:19:39;14.30;;;13.47;;
908;SDS011;441;51.192;6.788;2023-03-01T06:22:07;14.63;;;13.93;;
908;SDS011;441;51.192;6.788;2023-03-01T06:24:34;13.70;;;13.30;;
908;SDS011;441;51.192;6.788;2023-03-01T06:27:01;14.73;;;14.10;;
908;SDS011;441;51.192;6.788;2023-03-01T06:29:28;14.60;;;13.93;;
908;SDS011;441;51.192;6.788;2023-03-01T06:31:54;15.17;;;14.47;;
908;SDS011;441;51.192;6.788;2023-03-01T06:34:21;14.23;;;13.53;;
908;SDS011;441;51.192;6.788;2023-03-01T06:36:48;16.03;;;14.77;;
908;SDS011;441;51.192;6.788;2023-03-01T06:39:16;17.57;;;13.80;;
908;SDS011;441;51.192;6.788;2023-03-01T06:41:43;15.50;;;14.53;;
908;SDS011;441;51.192;6.788;2023-03-01T06:44:10;16.63;;;14.87;;
908;SDS011;441;51.192;6.788;2023-03-01T06:46:38;14.80;;;13.90;;
908;SDS011;441;51.192;6.788;2023-03-01T06:49:05;14.80;;;13.60;;
908;SDS011;441;51.192;6.788;2023-03-01T06:51:34;12.97;;;12.17;;
908;SDS011;441;51.192;6.788;2023-03-01T06:54:01;13.17;;;12.37;;
908;SDS011;441;51.192;6.788;2023-03-01T06:56:30;15.00;;;14.00;;
908;SDS011;441;51.192;6.788;2023-03-01T06:58:57;17.97;;;12.50;;
908;SDS011;441;51.192;6.788;2023-03-01T07:01:24;13.50;;;12.20;;
908;SDS011;441;51.192;6.788;2023-03-01T07:03:51;15.67;;;14.30;;
908;SDS011;441;51.192;6.788;2023-03-01T07:06:18;19.60;;;14.10;;
908;SDS011;441;51.192;6.788;2023-03-01T07:08:45;15.03;;;13.37;;
908;SDS011;441;51.192;6.788;2023-03-01T07:11:12;15.07;;;14.00;;
908;SDS011;441;51.192;6.788;2023-03-01T07:13:40;13.43;;;12.47;;
908;SDS011;441;51.192;6.788;2023-03-01T07:16:08;12.60;;;11.90;;
908;SDS011;441;51.192;6.788;2023-03-01T07:18:35;13.40;;;12.73;;
908;SDS011;441;51.192;6.788;2023-03-01T07:21:05;13.83;;;13.20;;
908;SDS011;441;51.192;6.788;2023-03-01T07:23:32;13.60;;;12.37;;
908;SDS011;441;51.192;6.788;2023-03-01T07:25:59;13.37;;;12.50;;
908;SDS011;441;51.192;6.788;2023-03-01T07:28:26;13.70;;;12.63;;
908;SDS011;441;51.192;6.788;2023-03-01T07:30:55;13.00;;;12.30;;
908;SDS011;441;51.192;6.788;2023-03-01T07:33:26;13.83;;;13.20;;
908;SDS011;441;51.192;6.788;2023-03-01T07:35:55;16.87;;;15.50;;
908;SDS011;441;51.192;6.788;2023-03-01T07:38:23;13.20;;;12.20;;
908;SDS011;441;51.192;6.788;2023-03-01T07:40:50;12.67;;;12.17;;
908;SDS011;441;51.192;6.788;2023-03-01T07:43:18;13.63;;;12.97;;
908;SDS011;441;51.192;6.788;2023-03-01T07:45:45;13.90;;;13.00;;
908;SDS011;441;51.192;6.788;2023-03-01T07:48:13;12.50;;;11.90;;
908;SDS011;441;51.192;6.788;2023-03-01T07:50:40;13.87;;;13.17;;
908;SDS011;441;51.192;6.788;2023-03-01T07:53:08;11.63;;;11.13;;
908;SDS011;441;51.192;6.788;2023-03-01T07:55:34;11.50;;;11.10;;
908;SDS011;441;51.192;6.788;2023-03-01T07:58:01;11.80;;;11.30;;
908;SDS011;441;51.192;6.788;2023-03-01T08:00:29;13.57;;;12.80;;
908;SDS011;441;51.192;6.788;2023-03-01T08:02:58;13.20;;;12.60;;
908;SDS011;441;51.192;6.788;2023-03-01T08:05:26;12.60;;;12.00;;
908;SDS011;441;51.192;6.788;2023-03-01T08:07:54;13.47;;;12.80;;
908;SDS011;441;51.192;6.788;2023-03-01T08:10:21;12.63;;;12.13;;
908;SDS011;441;51.192;6.788;2023-03-01T08:12:50;13.03;;;12.47;;
908;SDS011;441;51.192;6.788;2023-03-01T08:15:18;12.63;;;12.03;;
908;SDS011;441;51.192;6.788;2023-03-01T08:17:46;13.53;;;13.07;;
908;SDS011;441;51.192;6.788;2023-03-01T08:20:15;12.90;;;12.40;;
908;SDS011;441;51.192;6.788;2023-03-01T08:22:43;12.57;;;11.97;;
908;SDS011;441;51.192;6.788;2023-03-01T08:25:10;12.40;;;11.90;;
908;SDS011;441;51.192;6.788;2023-03-01T08:27:37;13.03;;;12.33;;
908;SDS011;441;51.192;6.788;2023-03-01T08:30:04;14.03;;;12.93;;
908;SDS011;441;51.192;6.788;2023-03-01T08:32:35;12.40;;;11.80;;
908;SDS011;441;51.192;6.788;2023-03-01T08:35:02;12.20;;;11.60;;
908;SDS011;441;51.192;6.788;2023-03-01T08:37:29;12.43;;;11.93;;
908;SDS011;441;51.192;6.788;2023-03-01T08:39:59;12.50;;;12.00;;
908;SDS011;441;51.192;6.788;2023-03-01T08:42:26;12.10;;;11.70;;
908;SDS011;441;51.192;6.788;2023-03-01T08:44:53;11.30;;;10.90;;
908;SDS011;441;51.192;6.788;2023-03-01T08:47:20;12.20;;;11.67;;
908;SDS011;441;51.192;6.788;2023-03-01T08:49:46;11.97;;;11.43;;
908;SDS011;441;51.192;6.788;2023-03-01T08:52:16;13.17;;;12.30;;
908;SDS011;441;51.192;6.788;2023-03-01T08:54:42;12.63;;;12.13;;
908;SDS011;441;51.192;6.788;2023-03-01T08:57:11;11.87;;;11.33;;
908;SDS011;441;51.192;6.788;2023-03-01T08:59:37;12.90;;;12.33;;
908;SDS011;441;51.192;6.788;2023-03-01T09:02:05;12.00;;;11.60;;
908;SDS011;441;51.192;6.788;2023-03-01T09:04:37;13.10;;;12.50;;
908;SDS011;441;51.192;6.788;2023-03-01T09:07:04;12.40;;;11.80;;
908;SDS011;441;51.192;6.788;2023-03-01T09:09:31;13.20;;;12.70;;
908;SDS011;441;51.192;6.788;2023-03-01T09:11:58;12.17;;;11.57;;
908;SDS011;441;51.192;6.788;2023-03-01T09:14:26;11.70;;;11.40;;
908;SDS011;441;51.192;6.788;2023-03-01T09:16:53;10.80;;;10.50;;
908;SDS011;441;51.192;6.788;2023-03-01T09:19:20;11.93;;;11.43;;
908;SDS011;441;51.192;6.788;2023-03-01T09:21:47;11.90;;;11.40;;
908;SDS011;441;51.192;6.788;2023-03-01T09:24:19;10.77;;;10.47;;
908;SDS011;441;51.192;6.788;2023-03-01T09:26:47;11.50;;;11.13;;
908;SDS011;441;51.192;6.788;2023-03-01T09:29:14;11.80;;;11.40;;
908;SDS011;441;51.192;6.788;2023-03-01T09:31:43;11.70;;;11.30;;
908;SDS011;441;51.192;6.788;2023-03-01T09:34:10;11.80;;;11.50;;
908;SDS011;441;51.192;6.788;2023-03-01T09:36:38;12.00;;;11.60;;
908;SDS011;441;51.192;6.788;2023-03-01T09:39:05;10.83;;;10.53;;
908;SDS011;441;51.192;6.788;2023-03-01T09:41:38;11.73;;;11.10;;
908;SDS011;441;51.192;6.788;2023-03-01T09:44:13;11.10;;;10.70;;
908;SDS011;441;51.192;6.788;2023-03-01T09:46:51;11.60;;;11.10;;
908;SDS011;441;51.192;6.788;2023-03-01T09:49:19;11.07;;;10.67;;
908;SDS011;441;51.192;6.788;2023-03-01T09:51:54;11.70;;;11.30;;
908;SDS011;441;51.192;6.788;2023-03-01T09:54:23;11.27;;;10.87;;
908;SDS011;441;51.192;6.788;2023-03-01T09:56:57;11.60;;;11.10;;
908;SDS011;441;51.192;6.788;2023-03-01T09:59:33;11.80;;;11.30;;
908;SDS011;441;51.192;6.788;2023-03-01T10:02:17;11.90;;;11.50;;
908;SDS011;441;51.192;6.788;2023-03-01T10:04:51;12.33;;;11.63;;
908;SDS011;441;51.192;6.788;2023-03-01T10:07:21;11.60;;;11.20;;
908;SDS011;441;51.192;6.788;2023-03-01T10:09:56;12.27;;;11.87;;
908;SDS011;441;51.192;6.788;2023-03-01T10:12:26;11.67;;;11.30;;
908;SDS011;441;51.192;6.788;2023-03-01T10:15:00;11.70;;;11.30;;
908;SDS011;441;51.192;6.788;2023-03-01T10:17:34;12.20;;;11.80;;
908;SDS011;441;51.192;6.788;2023-03-01T10:20:17;11.70;;;11.30;;
908;SDS011;441;51.192;6.788;2023-03-01T10:22:46;11.73;;;11.33;;
908;SDS011;441;51.192;6.788;2023-03-01T10:25:17;12.00;;;11.60;;
908;SDS011;441;51.192;6.788;2023-03-01T10:27:51;11.10;;;10.70;;
908;SDS011;441;51.192;6.788;2023-03-01T10:30:20;12.67;;;12.17;;
908;SDS011;441;51.192;6.788;2023-03-01T10:32:53;11.90;;;11.40;;
908;SDS011;441;51.192;6.788;2023-03-01T10:35:21;12.50;;;12.00;;
908;SDS011;441;51.192;6.788;2023-03-01T10:37:58;11.70;;;11.20;;
908;SDS011;441;51.192;6.788;2023-03-01T10:40:29;11.87;;;11.30;;
908;SDS011;441;51.192;6.788;2023-03-01T10:42:57;11.70;;;11.20;;
908;SDS011;441;51.192;6.788;2023-03-01T10:45:30;11.93;;;11.53;;
908;SDS011;441;51.192;6.788;2023-03-01T10:48:05;11.73;;;11.33;;
908;SDS011;441;51.192;6.788;2023-03-01T10:50:36;11.60;;;11.30;;
908;SDS011;441;51.192;6.788;2023-03-01T10:53:05;11.37;;;10.93;;
908;SDS011;441;51.192;6.788;2023-03-01T10:55:56;12.00;;;11.60;;
908;SDS011;441;51.192;6.788;2023-03-01T10:58:24;11.47;;;11.07;;
908;SDS011;441;51.192;6.788;2023-03-01T11:00:52;11.53;;;11.13;;
908;SDS011;441;51.192;6.788;2023-03-01T11:03:23;11.37;;;11.00;;
908;SDS011;441;51.192;6.788;2023-03-01T11:05:53;11.57;;;11.20;;
908;SDS011;441;51.192;6.788;2023-03-01T11:11:18;12.30;;;11.90;;
908;SDS011;441;51.192;6.788;2023-03-01T11:13:54;11.20;;;10.80;;
908;SDS011;441;51.192;6.788;2023-03-01T11:16:27;12.00;;;11.50;;
908;SDS011;441;51.192;6.788;2023-03-01T11:19:00;11.50;;;11.20;;
908;SDS011;441;51.192;6.788;2023-03-01T11:21:41;10.97;;;10.67;;
908;SDS011;441;51.192;6.788;2023-03-01T11:24:13;11.70;;;11.30;;
908;SDS011;441;51.192;6.788;2023-03-01T11:26:42;11.57;;;11.13;;
908;SDS011;441;51.192;6.788;2023-03-01T11:29:25;11.27;;;10.80;;
908;SDS011;441;51.192;6.788;2023-03-01T11:31:56;10.90;;;10.60;;
908;SDS011;441;51.192;6.788;2023-03-01T11:34:31;12.40;;;12.00;;
908;SDS011;441;51.192;6.788;2023-03-01T11:37:11;11.17;;;10.80;;
908;SDS011;441;51.192;6.788;2023-03-01T11:39:49;11.40;;;11.03;;
908;SDS011;441;51.192;6.788;2023-03-01T11:42:22;12.10;;;11.60;;
908;SDS011;441;51.192;6.788;2023-03-01T11:44:54;11.73;;;11.23;;
908;SDS011;441;51.192;6.788;2023-03-01T11:47:38;12.70;;;12.30;;
908;SDS011;441;51.192;6.788;2023-03-01T11:50:21;11.90;;;11.50;;
908;SDS011;441;51.192;6.788;2023-03-01T11:52:59;11.03;;;10.73;;
908;SDS011;441;51.192;6.788;2023-03-01T11:56:03;11.27;;;10.97;;
908;SDS011;441;51.192;6.788;2023-03-01T11:58:45;12.50;;;12.00;;
908;SDS011;441;51.192;6.788;2023-03-01T12:01:30;11.60;;;11.20;;
908;SDS011;441;51.192;6.788;2023-03-01T12:04:08;11.67;;;11.37;;
908;SDS011;441;51.192;6.788;2023-03-01T12:06:57;12.27;;;11.97;;
908;SDS011;441;51.192;6.788;2023-03-01T12:09:30;11.80;;;11.40;;
908;SDS011;441;51.192;6.788;2023-03-01T12:12:08;12.40;;;12.00;;
908;SDS011;441;51.192;6.788;2023-03-01T12:14:51;12.73;;;12.23;;
908;SDS011;441;51.192;6.788;2023-03-01T12:17:36;12.10;;;11.70;;
908;SDS011;441;51.192;6.788;2023-03-01T12:20:21;11.60;;;11.30;;
908;SDS011;441;51.192;6.788;2023-03-01T12:22:59;11.40;;;11.10;;
908;SDS011;441;51.192;6.788;2023-03-01T12:25:48;11.70;;;11.30;;
908;SDS011;441;51.192;6.788;2023-03-01T12:28:30;12.07;;;11.47;;
908;SDS011;441;51.192;6.788;2023-03-01T12:31:15;11.70;;;11.30;;
908;SDS011;441;51.192;6.788;2023-03-01T12:34:06;11.53;;;11.13;;
908;SDS011;441;51.192;6.788;2023-03-01T12:36:58;11.27;;;10.90;;
908;SDS011;441;51.192;6.788;2023-03-01T12:39:44;11.87;;;11.40;;
908;SDS011;441;51.192;6.788;2023-03-01T12:42:22;11.30;;;10.93;;
908;SDS011;441;51.192;6.788;2023-03-01T12:45:15;11.30;;;11.00;;
908;SDS011;441;51.192;6.788;2023-03-01T12:48:03;11.70;;;11.40;;
908;SDS011;441;51.192;6.788;2023-03-01T12:50:47;12.07;;;11.57;;
908;SDS011;441;51.192;6.788;2023-03-01T12:53:19;11.90;;;11.50;;
908;SDS011;441;51.192;6.788;2023-03-01T12:55:54;11.50;;;11.10;;
908;SDS011;441;51.192;6.788;2023-03-01T12:58:28;12.00;;;11.60;;
908;SDS011;441;51.192;6.788;2023-03-01T13:01:14;12.20;;;11.80;;
908;SDS011;441;51.192;6.788;2023-03-01T13:03:56;12.50;;;12.10;;
908;SDS011;441;51.192;6.788;2023-03-01T13:06:32;12.80;;;12.40;;
908;SDS011;441;51.192;6.788;2023-03-01T13:09:07;11.73;;;11.40;;
908;SDS011;441;51.192;6.788;2023-03-01T13:11:42;11.57;;;11.17;;
908;SDS011;441;51.192;6.788;2023-03-01T13:20:11;12.27;;;11.90;;
908;SDS011;441;51.192;6.788;2023-03-01T13:22:40;11.97;;;11.57;;
908;SDS011;441;51.192;6.788;2023-03-01T13:25:14;10.90;;;10.60;;
908;SDS011;441;51.192;6.788;2023-03-01T13:27:45;12.40;;;12.00;;
908;SDS011;441;51.192;6.788;2023-03-01T13:36:11;12.00;;;11.60;;
908;SDS011;441;51.192;6.788;2023-03-01T13:38:55;11.10;;;10.80;;
908;SDS011;441;51.192;6.788;2023-03-01T13:44:19;11.13;;;10.80;;
908;SDS011;441;51.192;6.788;2023-03-01T13:46:59;11.30;;;10.90;;
908;SDS011;441;51.192;6.788;2023-03-01T13:49:32;12.40;;;12.00;;
908;SDS011;441;51.192;6.788;2023-03-01T13:52:13;12.10;;;11.80;;
908;SDS011;441;51.192;6.788;2023-03-01T13:55:14;12.23;;;11.73;;
908;SDS011;441;51.192;6.788;2023-03-01T13:57:45;11.83;;;11.43;;
908;SDS011;441;51.192;6.788;2023-03-01T14:00:27;12.30;;;11.90;;
908;SDS011;441;51.192;6.788;2023-03-01T14:03:02;12.30;;;11.90;;
908;SDS011;441;51.192;6.788;2023-03-01T14:05:37;12.10;;;11.70;;
908;SDS011;441;51.192;6.788;2023-03-01T14:08:05;12.10;;;11.70;;
908;SDS011;441;51.192;6.788;2023-03-01T14:10:46;11.80;;;11.40;;
908;SDS011;441;51.192;6.788;2023-03-01T14:13:33;12.30;;;11.90;;
908;SDS011;441;51.192;6.788;2023-03-01T14:27:58;13.23;;;12.73;;
908;SDS011;441;51.192;6.788;2023-03-01T14:30:30;13.00;;;12.50;;
908;SDS011;441;51.192;6.788;2023-03-01T14:33:00;12.27;;;11.87;;
908;SDS011;441;51.192;6.788;2023-03-01T14:35:29;12.33;;;11.93;;
908;SDS011;441;51.192;6.788;2023-03-01T14:37:58;13.07;;;12.43;;
908;SDS011;441;51.192;6.788;2023-03-01T14:40:26;11.77;;;11.37;;
908;SDS011;441;51.192;6.788;2023-03-01T14:42:55;12.60;;;12.20;;
908;SDS011;441;51.192;6.788;2023-03-01T14:45:26;11.63;;;11.33;;
908;SDS011;441;51.192;6.788;2023-03-01T14:47:55;11.50;;;11.20;;
908;SDS011;441;51.192;6.788;2023-03-01T14:50:27;12.33;;;11.93;;
908;SDS011;441;51.192;6.788;2023-03-01T14:52:57;10.80;;;10.30;;
908;SDS011;441;51.192;6.788;2023-03-01T14:55:26;17.42;;;16.63;;
908;SDS011;441;51.192;6.788;2023-03-01T14:57:56;18.90;;;18.20;;
908;SDS011;441;51.192;6.788;2023-03-01T15:00:25;12.70;;;12.30;;
908;SDS011;441;51.192;6.788;2023-03-01T15:02:55;13.10;;;12.70;;
908;SDS011;441;51.192;6.788;2023-03-01T15:05:27;12.53;;;12.13;;
908;SDS011;441;51.192;6.788;2023-03-01T15:07:56;13.30;;;12.67;;
908;SDS011;441;51.192;6.788;2023-03-01T15:10:24;13.23;;;12.73;;
908;SDS011;441;51.192;6.788;2023-03-01T15:12:53;12.60;;;12.20;;
908;SDS011;441;51.192;6.788;2023-03-01T15:15:23;12.90;;;12.50;;
908;SDS011;441;51.192;6.788;2023-03-01T15:17:59;12.47;;;12.07;;
908;SDS011;441;51.192;6.788;2023-03-01T15:20:27;12.03;;;11.67;;
908;SDS011;441;51.192;6.788;2023-03-01T15:23:00;13.13;;;12.73;;
908;SDS011;441;51.192;6.788;2023-03-01T15:25:28;13.25;;;12.65;;
908;SDS011;441;51.192;6.788;2023-03-01T15:27:56;13.83;;;13.43;;
908;SDS011;441;51.192;6.788;2023-03-01T15:30:27;14.50;;;14.00;;
908;SDS011;441;51.192;6.788;2023-03-01T15:35:58;13.43;;;12.70;;
908;SDS011;441;51.192;6.788;2023-03-01T15:38:27;13.30;;;12.90;;
908;SDS011;441;51.192;6.788;2023-03-01T15:41:00;14.07;;;13.37;;
908;SDS011;441;51.192;6.788;2023-03-01T15:43:38;13.20;;;12.70;;
908;SDS011;441;51.192;6.788;2023-03-01T15:46:13;14.33;;;13.77;;
908;SDS011;441;51.192;6.788;2023-03-01T15:48:48;13.90;;;13.40;;
908;SDS011;441;51.192;6.788;2023-03-01T15:51:17;12.80;;;12.40;;
908;SDS011;441;51.192;6.788;2023-03-01T15:53:50;13.80;;;13.30;;
908;SDS011;441;51.192;6.788;2023-03-01T15:56:18;13.40;;;13.00;;
908;SDS011;441;51.192;6.788;2023-03-01T15:58:45;13.93;;;13.47;;
908;SDS011;441;51.192;6.788;2023-03-01T16:01:14;13.13;;;12.73;;
908;SDS011;441;51.192;6.788;2023-03-01T16:03:43;13.57;;;13.17;;
908;SDS011;441;51.192;6.788;2023-03-01T16:06:10;14.33;;;13.73;;
908;SDS011;441;51.192;6.788;2023-03-01T16:08:38;13.40;;;13.00;;